Time;durP1;ratioP1;P1;durP2;ratioP2;P2;SDS_P1;SDS_P2;PMS_P1;PMS_P2;Temp;Humidity;BMP_temperature;BMP_pressure;BME280_temperature;BME280_humidity;BME280_pressure;Samples;Min_cycle;Max_cycle;Signal;HPM_P1;HPM_P2
2021/05/18 00:00:48;;;;;;;4.77;4.20;;;;;;;12.14;100.00;100018.03;4897295;29;20315;-76
2021/05/18 00:03:15;;;;;;;5.00;4.50;;;;;;;12.13;100.00;100024.56;4881836;29;20603;-75
2021/05/18 00:05:48;;;;;;;6.60;5.27;;;;;;;12.12;100.00;100020.22;4881733;29;20232;-75
2021/05/18 00:08:17;;;;;;;5.47;4.27;;;;;;;12.02;100.00;100025.84;4897612;29;20643;-75
2021/05/18 00:13:38;;;;;;;7.43;5.70;;;;;;;11.88;100.00;100036.97;4900201;29;20188;-75
2021/05/18 00:16:08;;;;;;;8.10;5.50;;;;;;;11.73;100.00;100042.66;4881926;29;20223;-74
2021/05/18 00:18:34;;;;;;;9.00;5.83;;;;;;;12.10;100.00;100033.31;4898485;29;20180;-76
2021/05/18 00:21:00;;;;;;;7.67;6.50;;;;;;;11.78;100.00;100046.09;4881892;29;20275;-74
2021/05/18 00:23:30;;;;;;;9.70;7.03;;;;;;;11.68;100.00;100053.59;4897144;29;20682;-75
2021/05/18 00:26:03;;;;;;;7.83;6.93;;;;;;;11.71;100.00;100055.75;4881416;29;20346;-76
2021/05/18 00:28:29;;;;;;;8.77;7.10;;;;;;;11.68;100.00;100057.13;4882451;29;20200;-76
2021/05/18 00:30:54;;;;;;;8.20;7.30;;;;;;;11.57;100.00;100061.09;4881962;29;20227;-76
2021/05/18 00:33:23;;;;;;;9.13;7.07;;;;;;;11.33;100.00;100059.47;4881888;29;20188;-76
2021/05/18 00:35:51;;;;;;;8.13;6.93;;;;;;;11.81;100.00;100061.03;4897397;29;20231;-76
2021/05/18 00:38:20;;;;;;;7.13;6.27;;;;;;;11.65;100.00;100062.34;4898928;29;20686;-76
2021/05/18 00:40:50;;;;;;;7.57;6.47;;;;;;;11.57;100.00;100063.00;4897471;29;20613;-77
2021/05/18 00:43:20;;;;;;;6.13;5.50;;;;;;;11.44;100.00;100077.31;4882234;29;20615;-77
2021/05/18 00:45:48;;;;;;;9.13;6.70;;;;;;;11.45;100.00;100068.06;4866020;29;20235;-76
2021/05/18 00:48:17;;;;;;;10.67;6.57;;;;;;;11.31;100.00;100078.00;4898323;29;20188;-75
2021/05/18 00:50:55;;;;;;;9.93;7.77;;;;;;;11.26;100.00;100086.22;4913006;29;20220;-76
2021/05/18 00:53:22;;;;;;;12.97;8.80;;;;;;;11.08;100.00;100088.06;4881398;29;20216;-76
2021/05/18 00:58:35;;;;;;;14.80;9.67;;;;;;;10.91;100.00;100093.16;4897100;29;20172;-77
2021/05/18 01:01:20;;;;;;;18.07;10.97;;;;;;;10.87;100.00;100098.34;4882648;29;20801;-76
2021/05/18 01:03:50;;;;;;;18.47;11.60;;;;;;;10.57;100.00;100105.19;4913268;29;20216;-76
2021/05/18 01:06:28;;;;;;;21.07;12.83;;;;;;;10.57;100.00;100107.91;4865244;29;20220;-78
2021/05/18 01:08:57;;;;;;;23.33;13.37;;;;;;;10.50;100.00;100108.22;4911668;29;20571;-76
2021/05/18 01:11:27;;;;;;;21.00;13.20;;;;;;;10.25;100.00;100120.38;4915623;28;20278;-76
2021/05/18 01:13:59;;;;;;;22.67;13.47;;;;;;;10.38;100.00;100121.38;4899985;29;20564;-77
2021/05/18 01:16:25;;;;;;;22.47;14.60;;;;;;;10.37;100.00;100127.09;4899877;29;20789;-77
2021/05/18 01:18:54;;;;;;;20.60;13.90;;;;;;;10.39;100.00;100128.41;4920974;29;20187;-77
2021/05/18 01:21:20;;;;;;;21.73;13.30;;;;;;;10.34;100.00;100119.50;4883794;29;20232;-77
2021/05/18 01:23:45;;;;;;;26.37;12.73;;;;;;;10.17;100.00;100134.56;4899045;29;20214;-77
2021/05/18 01:26:12;;;;;;;21.17;13.00;;;;;;;10.23;100.00;100131.53;4899990;29;20255;-76
2021/05/18 01:28:38;;;;;;;24.57;13.53;;;;;;;10.26;100.00;100132.88;4883610;29;20196;-77
2021/05/18 01:31:06;;;;;;;20.43;12.47;;;;;;;10.09;100.00;100137.84;4896910;29;20232;-77
2021/05/18 01:33:32;;;;;;;23.23;13.70;;;;;;;10.31;100.00;100147.22;4881687;29;20671;-78
2021/05/18 01:35:59;;;;;;;19.87;12.27;;;;;;;10.39;100.00;100144.69;4880827;29;20282;-77
2021/05/18 01:38:33;;;;;;;22.67;12.13;;;;;;;10.42;100.00;100144.13;4899976;29;20190;-78
2021/05/18 01:43:55;;;;;;;21.63;12.70;;;;;;;10.60;100.00;100156.19;4930645;29;20184;-77
2021/05/18 01:46:26;;;;;;;22.50;11.87;;;;;;;10.36;100.00;100149.88;4900710;29;20227;-77
2021/05/18 01:48:59;;;;;;;21.77;12.43;;;;;;;10.45;100.00;100154.41;4885316;29;20663;-77
2021/05/18 01:51:38;;;;;;;18.77;11.20;;;;;;;10.64;100.00;100155.38;4902541;29;20366;-78
2021/05/18 01:54:06;;;;;;;19.03;11.13;;;;;;;10.32;100.00;100169.75;4899875;29;20583;-77
2021/05/18 01:59:03;;;;;;;17.67;11.53;;;;;;;10.23;100.00;100177.66;4915555;29;20323;-78
2021/05/18 02:01:38;;;;;;;17.70;11.00;;;;;;;10.22;100.00;100176.06;4899582;29;20235;-76
2021/05/18 02:04:04;;;;;;;19.17;10.97;;;;;;;10.47;100.00;100170.44;4914678;29;20216;-75
2021/05/18 02:06:33;;;;;;;15.67;10.20;;;;;;;10.14;100.00;100183.97;4914773;29;20236;-76
2021/05/18 02:09:10;;;;;;;22.80;10.20;;;;;;;10.40;100.00;100183.50;4918677;29;20673;-76
2021/05/18 02:11:40;;;;;;;18.30;10.43;;;;;;;10.38;100.00;100185.69;4887997;29;20235;-77
2021/05/18 02:14:13;;;;;;;17.40;9.87;;;;;;;10.41;100.00;100196.81;4902707;29;20218;-76
2021/05/18 02:16:51;;;;;;;15.40;10.23;;;;;;;10.56;100.00;100193.97;4889640;29;20231;-77
2021/05/18 02:19:40;;;;;;;17.03;9.90;;;;;;;10.49;100.00;100192.66;4905082;29;20194;-76
2021/05/18 02:25:04;;;;;;;17.43;9.70;;;;;;;10.42;100.00;100193.00;4907301;29;20211;-76
2021/05/18 02:27:50;;;;;;;14.07;9.30;;;;;;;10.22;100.00;100191.50;4921194;29;20243;-77
2021/05/18 02:30:17;;;;;;;15.97;9.37;;;;;;;10.14;100.00;100201.03;4917781;29;20184;-76
2021/05/18 02:32:47;;;;;;;17.17;9.70;;;;;;;10.23;100.00;100204.78;4886695;29;20287;-75
2021/05/18 02:35:32;;;;;;;14.90;9.37;;;;;;;10.43;100.00;100205.47;4906167;29;20246;-77
2021/05/18 02:37:58;;;;;;;13.40;8.73;;;;;;;10.43;100.00;100208.19;4918770;29;20847;-75
2021/05/18 02:40:36;;;;;;;14.43;9.27;;;;;;;10.45;100.00;100216.88;4909805;29;20180;-76
2021/05/18 02:43:02;;;;;;;14.67;9.20;;;;;;;10.39;100.00;100209.84;4917944;29;20238;-77
2021/05/18 02:50:46;;;;;;;15.50;8.67;;;;;;;10.43;100.00;100215.53;4917057;29;20589;-76
2021/05/18 02:53:14;;;;;;;17.03;8.73;;;;;;;10.43;100.00;100219.03;4916789;29;20207;-77
2021/05/18 02:55:53;;;;;;;18.50;10.43;;;;;;;10.37;100.00;100226.72;4932584;29;20234;-77
2021/05/18 02:58:19;;;;;;;14.43;8.57;;;;;;;10.31;100.00;100228.66;4904135;29;20203;-77
2021/05/18 03:00:45;;;;;;;15.57;8.53;;;;;;;10.37;100.00;100229.44;4917058;28;20219;-76
2021/05/18 03:03:10;;;;;;;17.33;9.17;;;;;;;10.35;100.00;100231.59;4916857;29;20234;-76
2021/05/18 03:05:36;;;;;;;13.63;9.00;;;;;;;10.39;100.00;100230.75;4917038;29;20235;-76
2021/05/18 03:08:07;;;;;;;13.43;9.13;;;;;;;10.53;100.00;100232.56;4917820;29;20571;-76
2021/05/18 03:10:35;;;;;;;18.97;9.97;;;;;;;10.58;100.00;100235.22;4916537;29;20227;-75
2021/05/18 03:13:04;;;;;;;17.90;10.07;;;;;;;10.55;100.00;100233.09;4900853;29;20195;-77
2021/05/18 03:15:30;;;;;;;19.27;10.57;;;;;;;10.70;100.00;100243.84;4916686;29;20250;-77
2021/05/18 03:17:59;;;;;;;18.07;10.17;;;;;;;10.38;100.00;100240.81;4899470;29;20299;-76
2021/05/18 03:20:26;;;;;;;15.00;10.03;;;;;;;10.47;100.00;100252.69;4911291;29;20265;-76
2021/05/18 03:22:54;;;;;;;20.10;10.30;;;;;;;10.50;100.00;100246.69;4916012;29;20533;-74
2021/05/18 03:25:20;;;;;;;15.47;10.20;;;;;;;10.46;100.00;100247.56;4913298;29;20219;-75
2021/05/18 03:27:48;;;;;;;19.40;10.10;;;;;;;10.63;100.00;100247.97;4917096;29;20184;-74
2021/05/18 03:35:42;;;;;;;14.83;9.40;;;;;;;10.50;100.00;100243.19;4906129;29;20819;-76
2021/05/18 03:41:21;;;;;;;12.43;8.60;;;;;;;10.48;100.00;100248.88;4874560;29;20722;-76
2021/05/18 03:43:54;;;;;;;14.83;9.50;;;;;;;10.54;100.00;100253.19;4896481;29;20203;-76
2021/05/18 03:54:34;;;;;;;14.60;9.40;;;;;;;10.30;100.00;100248.72;4930360;29;20250;-77
2021/05/18 04:10:08;;;;;;;13.17;9.00;;;;;;;10.80;100.00;100262.78;4910393;29;20215;-76
2021/05/18 04:21:26;;;;;;;14.60;9.47;;;;;;;10.93;100.00;100264.84;4915717;29;20235;-75
2021/05/18 04:50:56;;;;;;;13.30;8.33;;;;;;;11.16;100.00;100295.63;4931290;28;20238;-76
2021/05/18 05:04:20;;;;;;;14.97;9.60;;;;;;;11.79;100.00;100302.69;4868304;29;20986;-77
2021/05/18 05:07:00;;;;;;;12.47;9.53;;;;;;;12.11;100.00;100307.19;4912788;29;20231;-76
2021/05/18 05:09:37;;;;;;;11.57;8.87;;;;;;;11.78;100.00;100301.06;4900629;29;20188;-76
2021/05/18 05:14:53;;;;;;;13.17;8.77;;;;;;;11.64;100.00;100305.56;4884038;29;20714;-75
2021/05/18 05:17:19;;;;;;;9.93;7.67;;;;;;;11.62;100.00;100307.75;4881912;29;20235;-76
2021/05/18 05:19:44;;;;;;;11.07;8.10;;;;;;;11.52;100.00;100312.47;4903985;29;20254;-77
2021/05/18 05:22:12;;;;;;;9.87;7.23;;;;;;;11.33;100.00;100311.53;4883327;29;20224;-75
2021/05/18 05:24:38;;;;;;;12.00;7.67;;;;;;;11.11;100.00;100316.63;4900320;29;20210;-74
2021/05/18 05:27:06;;;;;;;13.77;7.27;;;;;;;11.57;100.00;100318.69;4914676;29;20212;-75
2021/05/18 05:29:34;;;;;;;9.57;7.57;;;;;;;11.75;100.00;100318.75;4899151;29;20208;-73
2021/05/18 05:32:02;;;;;;;13.33;7.57;;;;;;;11.70;100.00;100326.16;4914921;29;20279;-75
2021/05/18 05:34:27;;;;;;;13.10;7.60;;;;;;;11.74;100.00;100325.31;4913846;29;20212;-74
2021/05/18 05:36:56;;;;;;;12.67;7.57;;;;;;;11.63;100.00;100326.50;4897619;29;20228;-74
2021/05/18 05:39:26;;;;;;;12.40;7.60;;;;;;;11.79;100.00;100330.69;4900054;29;20184;-76
2021/05/18 05:41:52;;;;;;;11.20;7.43;;;;;;;12.07;100.00;100321.69;4899273;29;20228;-75
2021/05/18 05:44:18;;;;;;;11.73;6.77;;;;;;;12.12;100.00;100335.22;4920367;29;20219;-77
2021/05/18 05:46:44;;;;;;;9.40;6.57;;;;;;;12.23;100.00;100326.63;4934820;29;20231;-76
2021/05/18 05:49:12;;;;;;;9.33;6.63;;;;;;;12.33;100.00;100337.44;4919668;29;20188;-75
2021/05/18 05:51:38;;;;;;;10.13;7.43;;;;;;;12.33;100.00;100332.78;4903819;29;20239;-77
2021/05/18 05:54:04;;;;;;;9.40;6.40;;;;;;;11.97;100.00;100341.66;4918867;29;20200;-75
2021/05/18 05:56:30;;;;;;;10.53;6.57;;;;;;;12.36;100.00;100345.00;4887366;29;20258;-75
2021/05/18 05:58:56;;;;;;;10.20;6.00;;;;;;;12.39;100.00;100337.06;4903536;29;20574;-75
2021/05/18 06:01:22;;;;;;;8.10;5.50;;;;;;;12.37;100.00;100343.91;4887134;29;20302;-78
2021/05/18 06:03:47;;;;;;;10.00;5.73;;;;;;;12.34;100.00;100349.94;4903179;29;20720;-76
2021/05/18 06:06:13;;;;;;;8.93;5.57;;;;;;;12.47;100.00;100344.59;4902642;29;20220;-77
2021/05/18 06:08:44;;;;;;;7.37;5.37;;;;;;;12.90;100.00;100349.75;4936067;29;20563;-78
2021/05/18 06:11:17;;;;;;;8.50;5.63;;;;;;;12.48;100.00;100346.22;4905641;29;20691;-75
2021/05/18 06:41:23;;;;;;;9.77;5.53;;;;;;;12.49;100.00;100379.69;4921742;29;20230;-77
2021/05/18 06:45:48;;;;;;;9.23;5.63;;;;;;;12.25;100.00;100392.50;4904334;29;20563;-76
2021/05/18 06:46:56;;;;;;;8.93;5.90;;;;;;;12.59;100.00;100379.59;4936971;29;20250;-76
2021/05/18 06:49:26;;;;;;;6.87;5.27;;;;;;;12.79;100.00;100386.44;4936467;29;20257;-75
2021/05/18 06:51:55;;;;;;;9.80;5.50;;;;;;;13.13;100.00;100392.47;4918886;29;20266;-76
2021/05/18 06:54:23;;;;;;;9.33;5.73;;;;;;;12.65;100.00;100384.69;4904076;29;20191;-75
2021/05/18 06:56:54;;;;;;;8.93;6.17;;;;;;;12.81;100.00;100394.31;4936601;29;20234;-75
2021/05/18 07:01:48;;;;;;;7.87;5.73;;;;;;;12.86;100.00;100403.25;4918046;29;20308;-73
2021/05/18 07:04:17;;;;;;;8.30;5.90;;;;;;;12.86;100.00;100402.44;4920707;29;20668;-75
2021/05/18 07:06:55;;;;;;;7.47;5.80;;;;;;;12.79;100.00;100408.22;4937260;29;20279;-75
2021/05/18 07:09:21;;;;;;;7.30;5.93;;;;;;;13.02;100.00;100401.94;4936324;29;20881;-75
2021/05/18 07:11:54;;;;;;;9.20;6.70;;;;;;;13.18;100.00;100411.50;4934182;29;20235;-77
2021/05/18 07:14:19;;;;;;;8.63;5.73;;;;;;;13.05;100.00;100409.50;4901254;29;20180;-75
2021/05/18 07:16:45;;;;;;;9.13;6.30;;;;;;;13.27;100.00;100409.72;4934840;29;20227;-76
2021/05/18 07:19:11;;;;;;;7.67;5.97;;;;;;;13.60;100.00;100409.47;4935681;29;20690;-75
2021/05/18 07:21:37;;;;;;;6.83;5.83;;;;;;;13.29;100.00;100407.53;4934936;28;20242;-77
2021/05/18 07:24:08;;;;;;;9.50;6.27;;;;;;;13.45;100.00;100413.25;4919583;29;20255;-78
2021/05/18 07:26:38;;;;;;;9.43;6.50;;;;;;;13.02;100.00;100418.28;4920313;29;20238;-75
2021/05/18 07:29:08;;;;;;;8.93;5.97;;;;;;;13.46;100.00;100414.88;4920184;29;20685;-74
2021/05/18 07:31:34;;;;;;;10.10;6.40;;;;;;;13.74;100.00;100416.59;4935650;28;20235;-74
2021/05/18 07:34:00;;;;;;;10.83;6.07;;;;;;;13.91;100.00;100412.19;4903062;29;20200;-75
2021/05/18 07:36:28;;;;;;;8.33;5.77;;;;;;;14.03;100.00;100420.78;4902676;29;20227;-76
2021/05/18 07:38:59;;;;;;;8.47;6.10;;;;;;;14.18;100.00;100411.50;4919039;29;20198;-76
2021/05/18 07:41:28;;;;;;;7.03;5.57;;;;;;;14.34;99.43;100410.88;4919063;29;20606;-77
2021/05/18 07:43:58;;;;;;;7.13;5.53;;;;;;;14.34;100.00;100411.72;4903545;29;20186;-76
2021/05/18 07:46:29;;;;;;;7.43;5.53;;;;;;;14.81;99.71;100405.81;4918827;29;20232;-75
2021/05/18 08:07:24;;;;;;;5.83;4.70;;;;;;;14.39;91.29;100414.31;4929771;29;20234;-76
2021/05/18 08:09:55;;;;;;;5.40;4.37;;;;;;;14.59;88.77;100405.72;4924782;29;20626;-76
2021/05/18 08:12:23;;;;;;;5.30;3.90;;;;;;;14.83;84.14;100414.53;4918400;29;20247;-75
2021/05/18 08:47:06;;;;;;;3.53;2.80;;;;;;;14.75;73.57;100407.03;4942157;29;20190;-77
2021/05/18 09:38:06;;;;;;;4.70;2.73;;;;;;;15.49;66.33;100424.53;4920492;29;20318;-75
2021/05/18 10:35:51;;;;;;;2.30;2.10;;;;;;;16.37;62.15;100431.59;4918869;29;20694;-75
2021/05/18 10:38:24;;;;;;;2.47;2.13;;;;;;;16.58;60.20;100428.78;4919876;29;20640;-75
2021/05/18 10:41:11;;;;;;;2.70;2.05;;;;;;;16.47;58.49;100423.09;4904342;29;20223;-76
2021/05/18 10:43:36;;;;;;;2.33;2.13;;;;;;;16.12;61.61;100429.50;4918927;29;20187;-76
2021/05/18 10:46:09;;;;;;;3.08;2.30;;;;;;;16.05;60.66;100434.63;4918605;29;20286;-75
2021/05/18 10:48:37;;;;;;;2.22;2.00;;;;;;;15.83;62.39;100431.88;4934602;29;20198;-75
2021/05/18 10:51:27;;;;;;;3.60;2.20;;;;;;;16.16;60.73;100429.69;4902559;29;20789;-75
2021/05/18 10:54:08;;;;;;;2.35;2.03;;;;;;;16.76;59.52;100432.41;4916871;29;20203;-76
2021/05/18 10:56:55;;;;;;;3.25;2.30;;;;;;;16.76;58.84;100430.47;4918102;29;20258;-76
2021/05/18 10:59:27;;;;;;;3.20;2.40;;;;;;;16.30;58.85;100423.00;4919060;29;20184;-75
2021/05/18 11:02:18;;;;;;;2.40;2.20;;;;;;;16.99;58.50;100421.81;4950355;28;20247;-78
2021/05/18 11:04:50;;;;;;;2.85;2.40;;;;;;;17.55;56.81;100432.75;4936858;29;20212;-75
2021/05/18 11:07:19;;;;;;;2.35;2.15;;;;;;;17.72;54.95;100428.03;4918754;29;20246;-75
2021/05/18 11:09:48;;;;;;;2.53;2.22;;;;;;;16.88;57.13;100427.13;4903827;29;20267;-76
2021/05/18 11:12:14;;;;;;;3.00;2.20;;;;;;;17.20;56.90;100435.78;4948676;28;20227;-76
2021/05/18 11:14:59;;;;;;;2.35;2.10;;;;;;;17.63;54.46;100432.72;4934083;29;20184;-75
2021/05/18 11:17:34;;;;;;;2.47;2.00;;;;;;;17.40;56.38;100434.03;4918343;29;20234;-76
2021/05/18 11:20:10;;;;;;;2.42;2.22;;;;;;;17.44;55.12;100431.44;4918565;29;20569;-76
2021/05/18 11:25:50;;;;;;;3.17;2.13;;;;;;;16.85;54.64;100433.22;4924387;29;20235;-75
2021/05/18 11:28:16;;;;;;;2.83;2.38;;;;;;;16.51;55.89;100432.31;4918691;29;20184;-76
2021/05/18 11:30:45;;;;;;;3.22;2.92;;;;;;;17.07;54.37;100417.50;4918302;29;20231;-76
2021/05/18 11:33:17;;;;;;;2.63;2.22;;;;;;;17.53;54.85;100419.34;4918304;29;20195;-77
2021/05/18 11:35:45;;;;;;;2.45;2.25;;;;;;;17.11;54.41;100421.22;4917536;29;20231;-78
2021/05/18 11:38:14;;;;;;;3.50;2.13;;;;;;;17.11;55.03;100421.22;4903956;29;20192;-76
2021/05/18 11:40:51;;;;;;;2.47;2.28;;;;;;;17.68;53.19;100420.78;4918656;29;20701;-75
2021/05/18 11:43:26;;;;;;;2.45;2.25;;;;;;;17.90;54.04;100427.69;4917937;29;20195;-75
2021/05/18 11:46:12;;;;;;;2.05;1.95;;;;;;;17.96;53.74;100426.38;4934051;29;20287;-76
2021/05/18 11:48:52;;;;;;;3.10;2.50;;;;;;;17.58;53.76;100416.44;4903082;29;20199;-77
2021/05/18 11:51:18;;;;;;;2.38;2.17;;;;;;;18.20;51.94;100408.28;4902517;29;20239;-75
2021/05/18 11:53:51;;;;;;;3.90;2.20;;;;;;;18.20;50.72;100412.94;4918385;29;20201;-75
2021/05/18 11:56:25;;;;;;;3.53;2.30;;;;;;;18.14;50.86;100420.56;4933892;29;20239;-77
2021/05/18 11:59:21;;;;;;;4.28;2.20;;;;;;;17.73;51.30;100424.19;4935034;29;20188;-74
2021/05/18 12:01:58;;;;;;;2.50;2.17;;;;;;;17.19;53.30;100421.22;4913552;29;20672;-75
2021/05/18 12:04:24;;;;;;;2.20;2.10;;;;;;;17.19;54.21;100418.50;4922207;29;20223;-75
2021/05/18 12:07:08;;;;;;;2.67;2.00;;;;;;;17.45;53.98;100420.16;4920482;29;20253;-76
2021/05/18 12:09:34;;;;;;;2.58;2.30;;;;;;;17.92;52.41;100422.69;4937017;29;20605;-76
2021/05/18 12:12:10;;;;;;;2.60;2.03;;;;;;;18.35;52.03;100413.25;4936130;29;20285;-77
2021/05/18 12:14:46;;;;;;;2.80;1.98;;;;;;;18.86;51.03;100411.03;4937026;29;20250;-76
2021/05/18 12:17:12;;;;;;;1.98;1.80;;;;;;;19.09;49.79;100407.72;4952674;28;20265;-75
2021/05/18 12:19:38;;;;;;;3.15;2.30;;;;;;;18.64;50.47;100413.28;4937071;29;20202;-74
2021/05/18 12:22:04;;;;;;;2.38;1.98;;;;;;;19.12;50.85;100412.56;4952050;28;20239;-75
2021/05/18 12:24:29;;;;;;;2.45;2.20;;;;;;;18.69;49.42;100413.88;4906041;29;20203;-76
2021/05/18 12:26:58;;;;;;;2.40;1.90;;;;;;;18.52;51.00;100408.47;4936826;29;20313;-74
2021/05/18 12:29:47;;;;;;;2.05;1.85;;;;;;;18.59;51.33;100417.03;4954168;29;20195;-76
2021/05/18 12:32:28;;;;;;;1.83;1.73;;;;;;;18.50;51.20;100407.19;4913732;29;20238;-77
2021/05/18 12:34:57;;;;;;;2.45;2.10;;;;;;;18.32;50.92;100421.34;4937362;29;20614;-76
2021/05/18 12:37:45;;;;;;;2.22;2.03;;;;;;;18.18;50.43;100424.28;4954363;28;20230;-76
2021/05/18 12:40:14;;;;;;;2.65;2.10;;;;;;;17.67;52.61;100419.97;4921359;28;20191;-76
2021/05/18 12:42:42;;;;;;;2.50;2.10;;;;;;;17.70;50.48;100424.81;4951821;28;20203;-75
2021/05/18 12:45:09;;;;;;;2.83;2.53;;;;;;;17.61;51.78;100426.75;4936419;28;20221;-75
2021/05/18 12:47:39;;;;;;;2.38;2.17;;;;;;;17.85;52.34;100427.06;4952913;29;20187;-74
2021/05/18 12:50:12;;;;;;;2.70;1.85;;;;;;;17.99;52.27;100427.69;4936558;28;20243;-75
2021/05/18 12:52:42;;;;;;;2.38;2.17;;;;;;;17.86;52.28;100423.19;4935929;29;20210;-75
2021/05/18 12:55:13;;;;;;;2.10;1.90;;;;;;;17.77;52.35;100425.13;4935682;28;20234;-76
2021/05/18 12:58:08;;;;;;;2.63;2.30;;;;;;;17.74;51.59;100431.28;4921056;29;20745;-77
2021/05/18 13:00:40;;;;;;;3.45;2.20;;;;;;;17.88;51.66;100429.97;4923981;28;20277;-74
2021/05/18 13:03:13;;;;;;;2.95;2.25;;;;;;;18.42;49.28;100421.78;4935635;29;20187;-76
2021/05/18 13:05:44;;;;;;;1.92;1.83;;;;;;;18.48;51.04;100419.66;4936162;29;20321;-75
2021/05/18 13:08:10;;;;;;;2.60;2.03;;;;;;;18.51;50.00;100425.31;4936637;29;20190;-76
2021/05/18 13:10:44;;;;;;;2.90;2.30;;;;;;;18.40;51.05;100431.50;4936433;29;20641;-76
2021/05/18 13:13:12;;;;;;;1.90;1.80;;;;;;;18.32;49.63;100433.16;4951722;29;20872;-76
2021/05/18 13:15:38;;;;;;;3.05;2.40;;;;;;;17.74;49.05;100425.78;4903848;29;20233;-75
2021/05/18 13:18:05;;;;;;;2.88;2.45;;;;;;;18.19;49.53;100423.16;4936484;29;20805;-75
2021/05/18 13:20:41;;;;;;;2.42;2.17;;;;;;;18.24;49.00;100420.22;4919213;29;20222;-75
2021/05/18 13:23:11;;;;;;;2.88;2.20;;;;;;;18.19;49.89;100425.91;4910390;29;20222;-75
2021/05/18 13:28:25;;;;;;;3.28;2.30;;;;;;;17.93;50.99;100417.97;4916893;29;20588;-75
2021/05/18 13:30:56;;;;;;;2.00;1.80;;;;;;;18.56;50.29;100411.38;4902197;29;20220;-75
2021/05/18 13:33:25;;;;;;;2.25;2.05;;;;;;;18.32;48.84;100427.63;4917149;29;20242;-75
2021/05/18 13:35:51;;;;;;;2.60;2.10;;;;;;;18.20;48.91;100419.28;4901742;29;20227;-76
2021/05/18 13:38:17;;;;;;;2.15;2.05;;;;;;;17.53;50.45;100424.81;4901733;29;20192;-76
2021/05/18 13:40:50;;;;;;;2.30;1.88;;;;;;;17.86;50.30;100423.19;4916696;29;20267;-76
2021/05/18 13:43:19;;;;;;;2.08;1.83;;;;;;;17.68;51.38;100431.78;4917036;29;20184;-76
2021/05/18 13:45:44;;;;;;;3.53;2.30;;;;;;;17.75;49.70;100428.22;4901378;29;20228;-77
2021/05/18 13:48:10;;;;;;;2.15;1.95;;;;;;;17.26;52.06;100432.56;4885754;29;20626;-73
2021/05/18 13:50:40;;;;;;;2.28;2.08;;;;;;;17.30;52.23;100435.47;4901667;29;20219;-74
2021/05/18 13:53:08;;;;;;;2.28;2.08;;;;;;;17.53;52.47;100422.06;4916311;29;20675;-76
2021/05/18 13:55:36;;;;;;;2.15;1.95;;;;;;;17.57;52.53;100423.03;4901352;29;20227;-76
2021/05/18 13:58:01;;;;;;;2.55;2.03;;;;;;;17.10;52.98;100430.56;4902060;29;20235;-75
2021/05/18 14:00:29;;;;;;;2.20;2.00;;;;;;;17.20;53.29;100435.78;4932985;28;20537;-73
2021/05/18 14:02:57;;;;;;;2.67;2.00;;;;;;;17.24;53.22;100437.56;4900658;29;20259;-74
2021/05/18 14:05:28;;;;;;;1.67;1.58;;;;;;;16.98;54.54;100428.44;4889772;29;20231;-75
2021/05/18 14:10:53;;;;;;;2.60;2.00;;;;;;;16.96;53.12;100438.13;4920737;29;20266;-74
2021/05/18 14:13:22;;;;;;;2.75;2.05;;;;;;;16.81;53.20;100422.13;4907939;29;20286;-75
2021/05/18 14:15:48;;;;;;;2.28;2.00;;;;;;;16.76;53.62;100425.00;4935408;29;21074;-76
2021/05/18 14:18:16;;;;;;;2.15;2.00;;;;;;;17.27;52.57;100428.69;4918832;29;20212;-74
2021/05/18 14:20:42;;;;;;;2.42;1.95;;;;;;;17.65;52.51;100433.22;4932651;29;20211;-77
2021/05/18 14:23:08;;;;;;;2.08;1.90;;;;;;;17.61;51.96;100425.97;4918101;29;20184;-74
2021/05/18 14:25:34;;;;;;;2.10;1.90;;;;;;;17.12;52.68;100422.81;4920047;29;20239;-76
2021/05/18 14:28:02;;;;;;;2.72;2.33;;;;;;;17.31;52.41;100426.91;4920302;29;20191;-76
2021/05/18 14:30:28;;;;;;;1.88;1.70;;;;;;;16.80;54.62;100425.97;4919295;29;20223;-76
2021/05/18 14:32:53;;;;;;;1.90;1.70;;;;;;;16.96;55.00;100424.41;4919904;29;20234;-74
2021/05/18 14:35:21;;;;;;;2.20;1.80;;;;;;;16.59;56.44;100424.94;4918761;29;20191;-76
2021/05/18 14:37:53;;;;;;;2.42;2.22;;;;;;;16.44;57.27;100421.00;4919601;29;20584;-75
2021/05/18 14:45:14;;;;;;;2.67;2.13;;;;;;;16.53;57.77;100419.91;4914042;29;20216;-76
2021/05/18 14:55:45;;;;;;;3.30;2.90;;;;;;;16.58;61.84;100430.72;4913502;29;20240;-75
2021/05/18 14:58:16;;;;;;;2.35;2.15;;;;;;;16.12;65.61;100426.75;4913711;29;20218;-75
2021/05/18 15:00:42;;;;;;;3.35;1.90;;;;;;;16.20;66.59;100426.03;4921556;29;20240;-74
2021/05/18 15:03:10;;;;;;;2.30;2.10;;;;;;;16.12;67.13;100425.97;4920474;29;20214;-73
2021/05/18 15:05:36;;;;;;;2.30;2.10;;;;;;;16.11;67.81;100427.88;4935858;29;20242;-75
2021/05/18 15:08:02;;;;;;;2.70;2.50;;;;;;;16.29;66.21;100426.88;4916714;29;20278;-76
2021/05/18 15:10:28;;;;;;;2.45;2.10;;;;;;;16.09;65.50;100432.06;4903408;29;20836;-73
2021/05/18 15:12:57;;;;;;;2.80;2.10;;;;;;;16.35;67.64;100428.38;4918807;29;20251;-76
2021/05/18 15:15:27;;;;;;;2.40;2.20;;;;;;;16.81;65.00;100430.34;4894167;29;20722;-77
2021/05/18 15:17:56;;;;;;;2.10;2.00;;;;;;;17.01;63.76;100437.97;4903700;29;20317;-76
2021/05/18 15:20:22;;;;;;;2.45;2.22;;;;;;;16.82;62.79;100433.88;4923179;28;20191;-76
2021/05/18 15:22:52;;;;;;;2.03;1.88;;;;;;;16.43;63.33;100435.84;4921900;29;20207;-77
2021/05/18 15:25:23;;;;;;;2.75;2.47;;;;;;;16.90;62.11;100435.84;4949978;29;20319;-74
2021/05/18 15:27:51;;;;;;;2.83;2.60;;;;;;;17.16;61.68;100430.13;4924268;29;20901;-76
2021/05/18 15:30:17;;;;;;;3.67;1.90;;;;;;;16.65;63.16;100434.63;4954730;28;20199;-75
2021/05/18 15:32:43;;;;;;;2.97;2.38;;;;;;;16.76;62.27;100430.47;4922032;29;20210;-77
2021/05/18 15:35:09;;;;;;;2.83;2.60;;;;;;;16.98;63.15;100433.94;4928392;29;20196;-76
2021/05/18 15:37:37;;;;;;;3.72;2.70;;;;;;;16.47;62.46;100434.06;4897849;29;20200;-81
2021/05/18 15:40:08;;;;;;;3.28;2.97;;;;;;;16.30;64.24;100442.19;4893883;29;20212;-76
2021/05/18 15:42:39;;;;;;;3.17;2.60;;;;;;;16.05;65.35;100442.84;4932087;29;20230;-76
2021/05/18 15:45:08;;;;;;;2.65;2.45;;;;;;;16.16;64.38;100435.97;4902618;29;20213;-76
2021/05/18 15:47:34;;;;;;;2.40;2.20;;;;;;;16.10;65.68;100447.38;4897252;29;20227;-77
2021/05/18 15:49:59;;;;;;;3.93;2.80;;;;;;;16.17;65.25;100448.53;4903309;29;20217;-76
2021/05/18 15:52:28;;;;;;;3.10;2.60;;;;;;;16.07;64.63;100451.56;4908429;29;20563;-78
2021/05/18 15:54:56;;;;;;;4.18;2.90;;;;;;;16.15;64.47;100452.72;4937380;29;20190;-77
2021/05/18 15:57:24;;;;;;;4.10;3.10;;;;;;;16.26;64.58;100452.19;4928476;29;20700;-75
2021/05/18 15:59:50;;;;;;;3.97;2.28;;;;;;;16.13;63.09;100464.00;4917380;29;20286;-77
2021/05/18 16:02:16;;;;;;;2.35;2.15;;;;;;;16.11;61.16;100458.03;4902674;29;20242;-74
2021/05/18 16:04:42;;;;;;;2.78;2.50;;;;;;;15.95;59.43;100462.28;4920168;29;20219;-78
2021/05/18 16:07:14;;;;;;;1.80;1.70;;;;;;;15.83;58.56;100470.25;4942612;29;20215;-77
2021/05/18 16:09:43;;;;;;;2.00;1.80;;;;;;;15.37;62.34;100481.75;4916989;29;20210;-79
2021/05/18 16:12:10;;;;;;;1.67;1.57;;;;;;;15.33;63.99;100475.28;4916799;29;20219;-77
2021/05/18 16:14:36;;;;;;;1.90;1.80;;;;;;;15.41;64.42;100482.75;4902853;29;20556;-79
2021/05/18 16:17:03;;;;;;;1.60;1.50;;;;;;;15.41;63.79;100471.81;4922518;29;20306;-76
2021/05/18 16:19:28;;;;;;;2.22;2.03;;;;;;;15.34;64.54;100484.31;4943439;29;20216;-77
2021/05/18 16:21:54;;;;;;;1.77;1.67;;;;;;;15.20;66.09;100481.59;4925979;29;20239;-76
2021/05/18 16:24:21;;;;;;;2.90;1.73;;;;;;;15.02;70.63;100501.63;4924811;29;20186;-76
2021/05/18 16:26:47;;;;;;;1.80;1.60;;;;;;;14.60;76.12;100502.25;4935161;29;20310;-78
2021/05/18 16:29:13;;;;;;;2.50;1.67;;;;;;;14.03;81.77;100502.72;4940226;29;20250;-77
2021/05/18 16:31:41;;;;;;;1.80;1.70;;;;;;;13.63;88.92;100512.63;4940052;29;20250;-79
2021/05/18 16:34:07;;;;;;;1.70;1.60;;;;;;;13.28;99.76;100515.03;4960648;29;20187;-75